createdAt,value
2017-03-24T00:00:49.647Z,86.52
2017-03-24T00:01:50.211Z,86.20
2017-03-24T00:02:50.716Z,86.01
2017-03-24T00:03:51.248Z,86.15
2017-03-24T00:04:51.789Z,85.77
2017-03-24T00:05:52.318Z,85.80
2017-03-24T00:06:52.854Z,85.91
2017-03-24T00:07:53.382Z,85.66
2017-03-24T00:08:53.923Z,85.40
2017-03-24T00:09:54.458Z,85.38
2017-03-24T00:10:54.991Z,85.46
2017-03-24T00:11:55.527Z,85.50
2017-03-24T00:12:56.061Z,85.40
2017-03-24T00:13:56.599Z,85.40
2017-03-24T00:14:57.129Z,85.43
2017-03-24T00:15:57.660Z,85.61
2017-03-24T00:16:58.192Z,85.53
2017-03-24T00:17:58.729Z,85.53
2017-03-24T00:18:59.260Z,85.96
2017-03-24T00:19:59.795Z,85.56
2017-03-24T00:21:00.331Z,85.80
2017-03-24T00:22:00.868Z,85.96
2017-03-24T00:23:01.413Z,85.75
2017-03-24T00:24:01.954Z,85.88
2017-03-24T00:25:02.490Z,85.88
2017-03-24T00:26:03.021Z,85.72
2017-03-24T00:27:03.561Z,85.88
2017-03-24T00:28:04.146Z,86.28
2017-03-24T00:29:04.628Z,86.04
2017-03-24T00:30:05.173Z,85.96
2017-03-24T00:31:05.694Z,86.25
2017-03-24T00:32:06.228Z,85.61
2017-03-24T00:33:06.765Z,86.01
2017-03-24T00:34:07.300Z,86.22
2017-03-24T00:35:07.840Z,86.25
2017-03-24T00:36:08.365Z,85.96
2017-03-24T00:37:08.899Z,86.12
2017-03-24T00:38:09.433Z,85.69
2017-03-24T00:39:09.963Z,85.61
2017-03-24T00:40:10.503Z,85.88
2017-03-24T00:41:11.038Z,86.01
2017-03-24T00:42:11.566Z,85.53
2017-03-24T00:43:12.104Z,85.61
2017-03-24T00:44:12.639Z,85.08
2017-03-24T00:45:13.170Z,84.74
2017-03-24T00:46:13.711Z,84.81
2017-03-24T00:47:14.236Z,83.86
2017-03-24T00:48:14.780Z,83.81
2017-03-24T00:49:15.306Z,83.86
2017-03-24T00:50:15.842Z,83.83
2017-03-24T00:51:16.377Z,84.12
2017-03-24T00:52:16.904Z,84.36
2017-03-24T00:53:17.443Z,83.97
2017-03-24T00:54:17.975Z,83.78
2017-03-24T00:55:18.504Z,83.51
2017-03-24T00:56:19.041Z,83.78
2017-03-24T00:57:19.573Z,83.78
2017-03-24T00:58:20.105Z,83.33
2017-03-24T00:59:20.636Z,83.65
2017-03-24T01:00:21.169Z,83.73
2017-03-24T01:01:21.705Z,83.89
2017-03-24T01:02:22.240Z,83.46
2017-03-24T01:03:22.779Z,83.70
2017-03-24T01:04:23.314Z,84.02
2017-03-24T01:05:23.857Z,83.89
2017-03-24T01:06:24.392Z,84.39
2017-03-24T01:07:24.919Z,84.87
2017-03-24T01:08:25.456Z,85.03
2017-03-24T01:09:26.006Z,83.62
2017-03-24T01:10:26.525Z,81.45
2017-03-24T01:11:27.060Z,81.92
2017-03-24T01:12:27.594Z,81.92
2017-03-24T01:13:28.127Z,81.71
2017-03-24T01:14:28.672Z,82.14
2017-03-24T01:15:29.200Z,82.16
2017-03-24T01:16:29.738Z,81.18
2017-03-24T01:17:30.261Z,81.45
2017-03-24T01:18:30.796Z,81.00
2017-03-24T01:19:31.332Z,81.18
2017-03-24T01:20:31.872Z,81.48
2017-03-24T01:21:32.399Z,82.08
2017-03-24T01:22:32.941Z,81.79
2017-03-24T01:23:33.615Z,81.68
2017-03-24T01:24:33.999Z,81.90
2017-03-24T01:25:34.537Z,82.08
2017-03-24T01:26:35.072Z,82.21
2017-03-24T01:27:35.607Z,82.45
2017-03-24T01:28:36.150Z,82.24
2017-03-24T01:29:36.677Z,82.67
2017-03-24T01:30:37.207Z,82.98
2017-03-24T01:31:37.747Z,83.06
2017-03-24T01:32:38.277Z,83.28
2017-03-24T01:33:38.818Z,83.09
2017-03-24T01:34:39.346Z,83.22
2017-03-24T01:35:39.875Z,83.46
2017-03-24T01:36:40.407Z,83.44
2017-03-24T01:37:40.943Z,83.75
2017-03-24T01:38:41.488Z,83.67
2017-03-24T01:39:42.012Z,83.12
2017-03-24T01:40:42.545Z,83.14
2017-03-24T01:41:43.075Z,83.14
2017-03-24T01:42:43.617Z,83.17
2017-03-24T01:43:44.149Z,83.25
2017-03-24T01:44:44.692Z,83.38
2017-03-24T01:45:45.227Z,83.38
2017-03-24T01:46:45.767Z,83.62
2017-03-24T01:47:46.301Z,83.22
2017-03-24T01:48:46.836Z,83.28
2017-03-24T01:49:47.371Z,83.54
2017-03-24T01:50:47.908Z,83.65
2017-03-24T01:51:48.431Z,83.81
2017-03-24T01:52:48.969Z,83.99
2017-03-24T01:53:49.506Z,84.20
2017-03-24T01:54:50.035Z,84.20
2017-03-24T01:55:50.570Z,84.60
2017-03-24T01:56:51.110Z,84.44
2017-03-24T01:57:51.643Z,84.58
2017-03-24T01:58:52.174Z,84.50
2017-03-24T01:59:52.708Z,85.11
2017-03-24T02:00:53.250Z,84.84
2017-03-24T02:01:53.777Z,84.74
2017-03-24T02:02:54.316Z,84.63
2017-03-24T02:03:54.850Z,84.66
2017-03-24T02:04:55.388Z,85.27
2017-03-24T02:05:55.918Z,85.05
2017-03-24T02:06:56.450Z,85.00
2017-03-24T02:07:56.978Z,84.87
2017-03-24T02:08:57.519Z,84.76
2017-03-24T02:09:58.056Z,84.52
2017-03-24T02:10:58.586Z,84.87
2017-03-24T02:11:59.119Z,84.55
2017-03-24T02:12:59.660Z,84.44
2017-03-24T02:14:00.187Z,84.47
2017-03-24T02:15:00.719Z,84.55
2017-03-24T02:16:01.255Z,83.65
2017-03-24T02:17:01.791Z,83.65
2017-03-24T02:18:02.326Z,83.83
2017-03-24T02:19:02.866Z,84.58
2017-03-24T02:20:03.392Z,84.31
2017-03-24T02:21:03.936Z,84.52
2017-03-24T02:22:04.462Z,85.19
2017-03-24T02:23:05.006Z,84.02
2017-03-24T02:24:05.537Z,83.65
2017-03-24T02:25:06.076Z,84.07
2017-03-24T02:26:06.609Z,83.78
2017-03-24T02:27:07.148Z,83.94
2017-03-24T02:28:07.684Z,83.62
2017-03-24T02:29:08.226Z,83.78
2017-03-24T02:30:08.762Z,83.40
2017-03-24T02:31:09.293Z,83.30
2017-03-24T02:32:09.821Z,83.49
2017-03-24T02:33:10.349Z,83.20
2017-03-24T02:34:10.880Z,82.64
2017-03-24T02:35:11.566Z,82.53
2017-03-24T02:36:11.947Z,83.78
2017-03-24T02:37:12.480Z,83.14
2017-03-24T02:38:13.011Z,82.35
2017-03-24T02:39:13.549Z,82.59
2017-03-24T02:40:14.078Z,82.16
2017-03-24T02:41:14.616Z,82.08
2017-03-24T02:42:15.144Z,82.27
2017-03-24T02:43:15.680Z,82.06
2017-03-24T02:44:16.212Z,83.01
2017-03-24T02:45:16.742Z,82.59
2017-03-24T02:46:17.285Z,82.69
2017-03-24T02:47:17.818Z,82.96
2017-03-24T02:48:18.493Z,82.08
2017-03-24T02:49:18.881Z,82.64
2017-03-24T02:50:19.420Z,82.32
2017-03-24T02:51:19.949Z,82.59
2017-03-24T02:52:20.480Z,82.00
2017-03-24T02:53:21.015Z,82.21
2017-03-24T02:54:21.550Z,82.21
2017-03-24T02:55:22.085Z,82.85
2017-03-24T02:56:22.615Z,82.48
2017-03-24T02:57:23.296Z,82.64
2017-03-24T02:58:23.685Z,83.25
2017-03-24T02:59:24.216Z,82.85
2017-03-24T03:00:24.745Z,82.77
2017-03-24T03:01:25.286Z,82.00
2017-03-24T03:02:25.818Z,82.21
2017-03-24T03:03:26.350Z,82.21
2017-03-24T03:04:26.883Z,82.51
2017-03-24T03:05:27.417Z,82.64
2017-03-24T03:06:27.953Z,83.30
2017-03-24T03:07:28.498Z,82.90
2017-03-24T03:08:29.039Z,82.96
2017-03-24T03:09:29.568Z,83.30
2017-03-24T03:10:30.107Z,83.65
2017-03-24T03:11:30.640Z,83.83
2017-03-24T03:12:31.175Z,84.05
2017-03-24T03:13:31.715Z,83.62
2017-03-24T03:14:32.240Z,84.07
2017-03-24T03:15:32.771Z,84.42
2017-03-24T03:16:33.306Z,83.75
2017-03-24T03:17:33.849Z,83.65
2017-03-24T03:18:34.375Z,83.46
2017-03-24T03:19:34.909Z,83.67
2017-03-24T03:20:35.442Z,83.46
2017-03-24T03:21:35.981Z,83.38
2017-03-24T03:22:36.513Z,83.38
2017-03-24T03:23:37.048Z,83.65
2017-03-24T03:24:37.578Z,83.40
2017-03-24T03:25:38.111Z,83.22
2017-03-24T03:26:38.647Z,83.57
2017-03-24T03:27:39.184Z,83.01
2017-03-24T03:28:39.712Z,83.28
2017-03-24T03:29:40.253Z,83.40
2017-03-24T03:30:40.783Z,83.57
2017-03-24T03:31:41.342Z,83.46
2017-03-24T03:32:41.852Z,84.23
2017-03-24T03:33:42.392Z,83.91
2017-03-24T03:34:42.923Z,84.26
2017-03-24T03:35:43.456Z,83.54
2017-03-24T03:36:43.982Z,83.54
2017-03-24T03:37:44.517Z,83.89
2017-03-24T03:38:45.049Z,83.70
2017-03-24T03:39:45.581Z,83.54
2017-03-24T03:40:46.117Z,83.40
2017-03-24T03:41:46.652Z,83.62
2017-03-24T03:42:47.184Z,83.65
2017-03-24T03:43:47.719Z,84.15
2017-03-24T03:44:48.255Z,84.39
2017-03-24T03:45:48.789Z,83.75
2017-03-24T03:46:49.318Z,83.81
2017-03-24T03:47:49.854Z,83.28
2017-03-24T03:48:50.391Z,83.40
2017-03-24T03:49:50.938Z,83.22
2017-03-24T03:50:51.470Z,83.14
2017-03-24T03:51:52.005Z,82.77
2017-03-24T03:52:52.547Z,82.61
2017-03-24T03:53:53.089Z,82.96
2017-03-24T03:54:53.614Z,83.14
2017-03-24T03:55:54.146Z,83.44
2017-03-24T03:56:54.682Z,84.20
2017-03-24T03:57:55.219Z,84.20
2017-03-24T03:58:55.750Z,83.33
2017-03-24T03:59:56.289Z,83.67
2017-03-24T04:00:56.818Z,84.28
2017-03-24T04:01:57.366Z,84.97
2017-03-24T04:02:57.890Z,84.76
2017-03-24T04:03:58.422Z,84.44
2017-03-24T04:04:58.958Z,84.60
2017-03-24T04:05:59.483Z,84.07
2017-03-24T04:07:00.023Z,83.91
2017-03-24T04:08:00.556Z,84.02
2017-03-24T04:09:01.093Z,84.02
2017-03-24T04:10:01.626Z,84.26
2017-03-24T04:11:02.158Z,85.00
2017-03-24T04:12:02.849Z,84.50
2017-03-24T04:13:03.226Z,84.44
2017-03-24T04:14:03.760Z,84.15
2017-03-24T04:15:04.295Z,84.95
2017-03-24T04:16:04.831Z,85.00
2017-03-24T04:17:05.362Z,84.68
2017-03-24T04:18:05.904Z,84.44
2017-03-24T04:19:06.430Z,84.76
2017-03-24T04:20:06.966Z,84.79
2017-03-24T04:21:07.493Z,84.44
2017-03-24T04:22:08.028Z,84.68
2017-03-24T04:23:08.561Z,84.68
2017-03-24T04:24:09.096Z,84.74
2017-03-24T04:25:09.633Z,84.60
2017-03-24T04:26:10.159Z,84.44
2017-03-24T04:27:10.695Z,84.23
2017-03-24T04:28:11.237Z,83.65
2017-03-24T04:29:11.767Z,83.91
2017-03-24T04:30:12.306Z,84.89
2017-03-24T04:31:12.838Z,84.44
2017-03-24T04:32:13.371Z,84.31
2017-03-24T04:33:13.907Z,84.17
2017-03-24T04:34:14.454Z,84.23
2017-03-24T04:35:14.978Z,83.91
2017-03-24T04:36:15.515Z,84.55
2017-03-24T04:37:16.046Z,84.07
2017-03-24T04:38:16.587Z,84.17
2017-03-24T04:39:17.120Z,84.28
2017-03-24T04:40:17.655Z,84.28
2017-03-24T04:41:18.193Z,84.05
2017-03-24T04:42:18.727Z,84.17
2017-03-24T04:43:19.259Z,83.81
2017-03-24T04:44:19.792Z,83.44
2017-03-24T04:45:20.324Z,84.07
2017-03-24T04:46:20.861Z,83.67
2017-03-24T04:47:21.396Z,84.44
2017-03-24T04:48:21.924Z,84.36
2017-03-24T04:49:22.461Z,84.52
2017-03-24T04:50:22.994Z,83.91
2017-03-24T04:51:23.531Z,83.51
2017-03-24T04:52:24.060Z,83.86
2017-03-24T04:53:24.592Z,83.81
2017-03-24T04:54:25.142Z,84.58
2017-03-24T04:55:25.661Z,84.84
2017-03-24T04:56:26.195Z,84.55
2017-03-24T04:57:26.727Z,84.87
2017-03-24T04:58:27.261Z,84.50
2017-03-24T04:59:27.792Z,84.63
2017-03-24T05:00:28.337Z,84.15
2017-03-24T05:01:28.858Z,84.58
2017-03-24T05:02:29.545Z,85.03
2017-03-24T05:03:29.953Z,84.09
2017-03-24T05:04:30.466Z,83.44
2017-03-24T05:05:30.998Z,83.81
2017-03-24T05:06:31.550Z,84.84
2017-03-24T05:07:32.109Z,84.05
2017-03-24T05:08:32.597Z,83.65
2017-03-24T05:09:33.136Z,82.82
2017-03-24T05:10:33.670Z,83.40
2017-03-24T05:11:34.202Z,83.81
2017-03-24T05:12:34.752Z,83.38
2017-03-24T05:13:35.276Z,83.01
2017-03-24T05:14:35.817Z,83.09
2017-03-24T05:15:36.357Z,82.82
2017-03-24T05:16:36.893Z,83.12
2017-03-24T05:17:37.427Z,83.01
2017-03-24T05:18:37.967Z,83.20
2017-03-24T05:19:38.498Z,83.22
2017-03-24T05:20:39.034Z,83.09
2017-03-24T05:21:39.564Z,83.12
2017-03-24T05:22:40.099Z,82.59
2017-03-24T05:23:40.635Z,82.72
2017-03-24T05:24:41.168Z,82.98
2017-03-24T05:25:41.710Z,82.96
2017-03-24T05:26:42.242Z,82.82
2017-03-24T05:27:42.773Z,82.72
2017-03-24T05:28:43.310Z,83.06
2017-03-24T05:29:43.845Z,83.30
2017-03-24T05:30:44.381Z,83.36
2017-03-24T05:31:44.909Z,82.80
2017-03-24T05:32:45.451Z,82.82
2017-03-24T05:33:45.973Z,83.36
2017-03-24T05:34:46.518Z,83.51
2017-03-24T05:35:47.050Z,83.20
2017-03-24T05:36:47.586Z,83.22
2017-03-24T05:37:48.114Z,83.22
2017-03-24T05:38:48.653Z,83.94
2017-03-24T05:39:49.188Z,83.94
2017-03-24T05:40:49.731Z,83.81
2017-03-24T05:41:50.259Z,83.51
2017-03-24T05:42:50.790Z,83.40
2017-03-24T05:43:51.333Z,83.38
2017-03-24T05:44:51.883Z,83.59
2017-03-24T05:45:52.398Z,83.49
2017-03-24T05:46:52.939Z,83.30
2017-03-24T05:47:53.466Z,83.75
2017-03-24T05:48:53.996Z,83.12
2017-03-24T05:49:54.535Z,81.82
2017-03-24T05:50:55.071Z,80.39
2017-03-24T05:51:55.600Z,81.10
2017-03-24T05:52:56.131Z,80.71
2017-03-24T05:53:56.675Z,78.25
2017-03-24T05:54:57.359Z,77.44
2017-03-24T05:55:57.750Z,77.65
2017-03-24T05:56:58.434Z,77.81
2017-03-24T05:57:58.825Z,77.02
2017-03-24T05:58:59.366Z,77.39
2017-03-24T05:59:59.894Z,77.07
2017-03-24T06:01:00.432Z,76.15
2017-03-24T06:02:00.964Z,74.42
2017-03-24T06:03:01.498Z,74.32
2017-03-24T06:04:02.030Z,74.26
2017-03-24T06:05:02.565Z,73.85
2017-03-24T06:06:03.097Z,74.13
2017-03-24T06:07:05.731Z,73.69
2017-03-24T06:08:04.169Z,72.90
2017-03-24T06:09:04.700Z,73.27
2017-03-24T06:10:05.251Z,73.69
2017-03-24T06:11:05.771Z,72.51
2017-03-24T06:12:06.299Z,72.51
2017-03-24T06:13:06.840Z,72.22
2017-03-24T06:14:07.370Z,72.48
2017-03-24T06:15:07.907Z,72.51
2017-03-24T06:16:08.440Z,73.19
2017-03-24T06:17:09.004Z,73.03
2017-03-24T06:18:09.511Z,72.93
2017-03-24T06:19:10.049Z,73.30
2017-03-24T06:20:10.581Z,74.16
2017-03-24T06:21:11.105Z,75.73
2017-03-24T06:22:11.671Z,76.31
2017-03-24T06:23:12.182Z,77.07
2017-03-24T06:24:12.711Z,76.65
2017-03-24T06:25:13.250Z,77.41
2017-03-24T06:26:13.778Z,77.75
2017-03-24T06:27:14.315Z,77.25
2017-03-24T06:28:14.851Z,77.23
2017-03-24T06:29:15.534Z,77.67
2017-03-24T06:30:15.917Z,77.81
2017-03-24T06:31:16.454Z,77.70
2017-03-24T06:32:17.134Z,77.62
2017-03-24T06:33:17.528Z,78.20
2017-03-24T06:34:18.057Z,78.39
2017-03-24T06:35:18.590Z,78.41
2017-03-24T06:36:19.312Z,78.44
2017-03-24T06:37:19.668Z,78.01
2017-03-24T06:38:20.203Z,77.94
2017-03-24T06:39:20.737Z,77.44
2017-03-24T06:40:21.271Z,77.83
2017-03-24T06:41:21.807Z,77.73
2017-03-24T06:42:22.330Z,77.23
2017-03-24T06:43:22.876Z,77.15
2017-03-24T06:44:23.406Z,76.26
2017-03-24T06:45:23.952Z,75.76
2017-03-24T06:46:24.460Z,76.18
2017-03-24T06:47:25.003Z,76.15
2017-03-24T06:48:25.524Z,75.89
2017-03-24T06:49:26.061Z,76.94
2017-03-24T06:50:26.592Z,76.07
2017-03-24T06:51:27.123Z,75.76
2017-03-24T06:52:27.658Z,76.39
2017-03-24T06:53:28.190Z,75.76
2017-03-24T06:54:28.724Z,75.62
2017-03-24T06:55:29.253Z,75.23
2017-03-24T06:56:29.790Z,75.52
2017-03-24T06:57:30.329Z,76.04
2017-03-24T06:58:30.856Z,74.63
2017-03-24T06:59:31.395Z,76.31
2017-03-24T07:00:31.920Z,76.15
2017-03-24T07:01:32.465Z,75.76
2017-03-24T07:02:32.999Z,75.15
2017-03-24T07:03:33.530Z,75.44
2017-03-24T07:04:34.060Z,75.37
2017-03-24T07:05:34.594Z,74.66
2017-03-24T07:06:35.119Z,74.71
2017-03-24T07:07:35.655Z,74.55
2017-03-24T07:08:36.185Z,74.42
2017-03-24T07:09:36.718Z,74.68
2017-03-24T07:10:37.249Z,75.73
2017-03-24T07:11:37.801Z,76.39
2017-03-24T07:12:38.318Z,75.52
2017-03-24T07:13:38.856Z,75.96
2017-03-24T07:14:39.391Z,75.57
2017-03-24T07:15:40.066Z,75.21
2017-03-24T07:16:40.459Z,75.70
2017-03-24T07:17:40.993Z,74.81
2017-03-24T07:18:41.532Z,74.55
2017-03-24T07:19:42.108Z,75.10
2017-03-24T07:20:42.604Z,72.72
2017-03-24T07:21:43.147Z,72.93
2017-03-24T07:22:43.670Z,71.42
2017-03-24T07:23:44.205Z,70.48
2017-03-24T07:24:44.887Z,71.03
2017-03-24T07:25:45.422Z,70.60
2017-03-24T07:26:45.840Z,68.55
2017-03-24T07:27:46.339Z,69.65
2017-03-24T07:28:46.869Z,69.46
2017-03-24T07:29:47.402Z,69.51
2017-03-24T07:30:47.939Z,69.67
2017-03-24T07:31:48.469Z,70.21
2017-03-24T07:32:49.002Z,71.00
2017-03-24T07:33:49.531Z,69.85
2017-03-24T07:34:50.067Z,70.50
2017-03-24T07:35:50.606Z,68.81
2017-03-24T07:36:51.131Z,69.44
2017-03-24T07:37:51.680Z,69.98
2017-03-24T07:38:52.198Z,69.36
2017-03-24T07:39:52.730Z,69.57
2017-03-24T07:40:53.269Z,67.75
2017-03-24T07:41:53.797Z,68.58
2017-03-24T07:42:54.337Z,65.81
2017-03-24T07:43:54.899Z,66.66
2017-03-24T07:44:55.399Z,66.84
2017-03-24T07:45:55.926Z,67.67
2017-03-24T07:46:56.463Z,67.18
2017-03-24T07:47:57.002Z,67.57
2017-03-24T07:48:57.525Z,65.96
2017-03-24T07:49:58.068Z,67.10
2017-03-24T07:50:58.593Z,67.20
2017-03-24T07:51:59.137Z,66.09
2017-03-24T07:52:59.674Z,66.40
2017-03-24T07:54:00.233Z,67.64
2017-03-24T07:55:00.741Z,65.91
2017-03-24T07:56:01.270Z,65.32
2017-03-24T07:57:01.955Z,67.16
2017-03-24T07:58:02.348Z,66.09
2017-03-24T07:59:02.882Z,66.01
2017-03-24T08:00:03.578Z,65.78
2017-03-24T08:01:03.976Z,64.67
2017-03-24T08:02:04.513Z,65.89
2017-03-24T08:03:05.055Z,64.49
2017-03-24T08:04:05.586Z,65.26
2017-03-24T08:05:06.120Z,64.98
2017-03-24T08:06:06.656Z,67.05
2017-03-24T08:07:07.192Z,65.37
2017-03-24T08:08:07.720Z,62.77
2017-03-24T08:09:08.261Z,61.94
2017-03-24T08:10:08.798Z,64.00
2017-03-24T08:11:09.321Z,64.02
2017-03-24T08:12:09.853Z,61.94
2017-03-24T08:13:10.389Z,62.10
2017-03-24T08:14:10.932Z,59.76
2017-03-24T08:15:11.454Z,60.17
2017-03-24T08:16:11.986Z,59.00
2017-03-24T08:17:12.519Z,60.12
2017-03-24T08:18:13.050Z,59.97
2017-03-24T08:19:13.585Z,62.07
2017-03-24T08:20:14.122Z,61.61
2017-03-24T08:21:14.830Z,58.30
2017-03-24T08:22:15.179Z,55.91
2017-03-24T08:23:15.714Z,56.06
2017-03-24T08:24:16.249Z,56.97
2017-03-24T08:25:16.782Z,56.95
2017-03-24T08:26:17.320Z,58.84
2017-03-24T08:27:17.847Z,56.65
2017-03-24T08:28:18.379Z,57.64
2017-03-24T08:29:18.907Z,54.30
2017-03-24T08:30:19.439Z,55.80
2017-03-24T08:31:19.974Z,55.22
2017-03-24T08:32:20.507Z,52.50
2017-03-24T08:33:21.037Z,52.12
2017-03-24T08:34:21.572Z,54.02
2017-03-24T08:35:22.103Z,52.57
2017-03-24T08:36:22.641Z,52.65
2017-03-24T08:37:23.165Z,53.69
2017-03-24T08:38:23.700Z,52.53
2017-03-24T08:39:24.233Z,49.90
2017-03-24T08:40:24.776Z,51.44
2017-03-24T08:41:25.305Z,52.02
2017-03-24T08:42:25.843Z,49.39
2017-03-24T08:43:26.385Z,50.83
2017-03-24T08:44:27.061Z,50.93
2017-03-24T08:45:27.447Z,53.11
2017-03-24T08:46:27.981Z,51.54
2017-03-24T08:47:28.514Z,53.51
2017-03-24T08:48:29.047Z,52.93
2017-03-24T08:49:29.578Z,51.71
2017-03-24T08:50:30.115Z,50.93
2017-03-24T08:51:30.643Z,52.20
2017-03-24T08:52:31.175Z,52.68
2017-03-24T08:53:31.709Z,51.57
2017-03-24T08:54:32.251Z,50.75
2017-03-24T08:55:32.773Z,49.82
2017-03-24T08:56:33.305Z,52.20
2017-03-24T08:57:33.841Z,51.16
2017-03-24T08:58:34.524Z,51.39
2017-03-24T08:59:34.907Z,51.71
2017-03-24T09:00:35.437Z,52.27
2017-03-24T09:01:35.974Z,53.03
2017-03-24T09:02:36.513Z,51.21
2017-03-24T09:03:37.039Z,51.69
2017-03-24T09:04:37.577Z,52.10
2017-03-24T09:05:38.104Z,51.54
2017-03-24T09:06:38.637Z,49.92
2017-03-24T09:07:39.170Z,50.13
2017-03-24T09:08:39.708Z,51.06
2017-03-24T09:09:40.237Z,49.80
2017-03-24T09:10:40.784Z,52.10
2017-03-24T09:11:41.305Z,51.59
2017-03-24T09:12:41.836Z,53.64
2017-03-24T09:13:42.370Z,52.68
2017-03-24T09:14:42.903Z,51.16
2017-03-24T09:15:43.437Z,49.95
2017-03-24T09:16:43.971Z,51.33
2017-03-24T09:17:44.494Z,50.53
2017-03-24T09:18:45.028Z,49.75
2017-03-24T09:19:45.555Z,50.07
2017-03-24T09:20:46.090Z,50.48
2017-03-24T09:21:46.628Z,52.50
2017-03-24T09:22:47.155Z,47.58
2017-03-24T09:23:47.700Z,48.74
2017-03-24T09:24:48.234Z,49.39
2017-03-24T09:25:48.780Z,49.92
2017-03-24T09:26:49.302Z,50.13
2017-03-24T09:27:49.840Z,50.66
2017-03-24T09:28:50.376Z,50.73
2017-03-24T09:29:50.907Z,48.81
2017-03-24T09:30:51.440Z,48.86
2017-03-24T09:31:51.970Z,49.29
2017-03-24T09:32:52.503Z,51.39
2017-03-24T09:33:53.041Z,49.27
2017-03-24T09:34:53.566Z,48.69
2017-03-24T09:35:54.104Z,50.33
2017-03-24T09:36:54.632Z,52.37
2017-03-24T09:37:55.166Z,49.95
2017-03-24T09:38:55.716Z,50.27
2017-03-24T09:39:56.232Z,49.95
2017-03-24T09:40:56.764Z,49.95
2017-03-24T09:41:57.297Z,51.97
2017-03-24T09:42:57.833Z,50.75
2017-03-24T09:43:58.362Z,48.86
2017-03-24T09:44:58.894Z,50.71
2017-03-24T09:45:59.430Z,51.21
2017-03-24T09:46:59.961Z,49.17
2017-03-24T09:48:00.492Z,48.79
2017-03-24T09:49:01.034Z,50.15
2017-03-24T09:50:01.557Z,49.95
2017-03-24T09:51:02.092Z,50.88
2017-03-24T09:52:02.635Z,51.77
2017-03-24T09:53:03.168Z,52.20
2017-03-24T09:54:03.701Z,51.95
2017-03-24T09:55:04.228Z,50.80
2017-03-24T09:56:05.065Z,51.31
2017-03-24T09:57:05.441Z,51.46
2017-03-24T09:58:05.832Z,50.35
2017-03-24T09:59:06.366Z,51.79
2017-03-24T10:00:06.894Z,51.51
2017-03-24T10:01:07.426Z,51.04
2017-03-24T10:02:07.959Z,52.32
2017-03-24T10:03:08.493Z,50.38
2017-03-24T10:04:09.032Z,49.92
2017-03-24T10:05:09.568Z,49.75
2017-03-24T10:06:10.099Z,50.48
2017-03-24T10:07:10.632Z,56.08
2017-03-24T10:08:11.170Z,48.34
2017-03-24T10:09:11.707Z,49.47
2017-03-24T10:10:12.382Z,48.84
2017-03-24T10:11:12.770Z,50.27
2017-03-24T10:12:13.304Z,46.48
2017-03-24T10:13:13.831Z,47.78
2017-03-24T10:14:14.370Z,44.43
2017-03-24T10:15:14.907Z,43.67
2017-03-24T10:16:15.435Z,45.45
2017-03-24T10:17:15.967Z,45.70
2017-03-24T10:18:16.499Z,45.10
2017-03-24T10:19:17.031Z,47.98
2017-03-24T10:20:17.561Z,44.55
2017-03-24T10:21:18.100Z,47.51
2017-03-24T10:22:18.631Z,45.52
2017-03-24T10:23:19.161Z,45.50
2017-03-24T10:24:19.695Z,46.30
2017-03-24T10:25:20.231Z,47.63
2017-03-24T10:26:20.765Z,46.52
2017-03-24T10:27:21.296Z,45.37
2017-03-24T10:28:21.826Z,46.32
2017-03-24T10:29:22.361Z,45.95
2017-03-24T10:30:22.894Z,45.52
2017-03-24T10:31:23.573Z,45.18
2017-03-24T10:32:23.956Z,45.85
2017-03-24T10:33:24.494Z,44.68
2017-03-24T10:34:25.025Z,44.47
2017-03-24T10:35:27.655Z,45.48
2017-03-24T10:36:26.090Z,46.20
2017-03-24T10:37:26.620Z,45.68
2017-03-24T10:38:27.155Z,45.82
2017-03-24T10:39:27.703Z,46.73
2017-03-24T10:40:28.226Z,45.12
2017-03-24T10:41:28.757Z,46.30
2017-03-24T10:42:29.291Z,45.27
2017-03-24T10:43:29.819Z,46.40
2017-03-24T10:44:30.354Z,44.90
2017-03-24T10:45:30.898Z,42.97
2017-03-24T10:46:31.427Z,44.27
2017-03-24T10:47:31.964Z,41.78
2017-03-24T10:48:32.500Z,41.88
2017-03-24T10:49:33.037Z,43.85
2017-03-24T10:50:33.576Z,43.97
2017-03-24T10:51:34.099Z,43.75
2017-03-24T10:52:34.634Z,43.57
2017-03-24T10:53:35.186Z,43.13
2017-03-24T10:54:35.713Z,43.75
2017-03-24T10:55:36.244Z,42.95
2017-03-24T10:56:36.766Z,42.72
2017-03-24T10:57:37.303Z,44.35
2017-03-24T10:58:37.844Z,42.25
2017-03-24T10:59:38.366Z,43.65
2017-03-24T11:00:38.894Z,46.23
2017-03-24T11:01:39.425Z,44.60
2017-03-24T11:02:39.961Z,42.20
2017-03-24T11:03:40.493Z,42.25
2017-03-24T11:04:41.026Z,43.40
2017-03-24T11:05:41.567Z,44.15
2017-03-24T11:06:42.093Z,44.77
2017-03-24T11:07:42.623Z,44.25
2017-03-24T11:08:43.163Z,45.43
2017-03-24T11:09:43.692Z,43.55
2017-03-24T11:10:44.224Z,45.10
2017-03-24T11:11:44.762Z,43.40
2017-03-24T11:12:45.290Z,45.62
2017-03-24T11:13:45.831Z,42.87
2017-03-24T11:14:46.361Z,45.05
2017-03-24T11:15:47.032Z,42.87
2017-03-24T11:16:47.416Z,42.97
2017-03-24T11:17:47.952Z,41.88
2017-03-24T11:18:48.481Z,41.35
2017-03-24T11:19:49.009Z,44.20
2017-03-24T11:20:49.555Z,44.12
2017-03-24T11:21:50.081Z,42.48
2017-03-24T11:22:50.614Z,43.27
2017-03-24T11:24:51.678Z,42.08
2017-03-24T11:25:52.359Z,42.60
2017-03-24T11:26:52.743Z,43.47
2017-03-24T11:27:53.276Z,40.29
2017-03-24T11:28:53.819Z,45.60
2017-03-24T11:29:54.361Z,40.19
2017-03-24T11:30:54.895Z,41.06
2017-03-24T11:31:55.426Z,40.98
2017-03-24T11:32:55.961Z,42.10
2017-03-24T11:33:56.497Z,41.80
2017-03-24T11:34:57.031Z,42.58
2017-03-24T11:35:57.560Z,42.35
2017-03-24T11:36:58.100Z,41.78
2017-03-24T11:37:58.631Z,43.15
2017-03-24T11:38:59.166Z,42.70
2017-03-24T11:40:00.451Z,42.87
2017-03-24T11:41:00.233Z,42.45
2017-03-24T11:42:00.912Z,41.75
2017-03-24T11:43:01.293Z,41.90
2017-03-24T11:44:01.835Z,42.40
2017-03-24T11:45:02.362Z,41.23
2017-03-24T11:46:02.892Z,40.98
2017-03-24T11:47:03.425Z,40.01
2017-03-24T11:48:03.957Z,42.55
2017-03-24T11:49:04.484Z,42.35
2017-03-24T11:50:05.036Z,44.72
2017-03-24T11:51:05.552Z,44.39
2017-03-24T11:52:06.085Z,43.63
2017-03-24T11:53:06.619Z,46.00
2017-03-24T11:54:07.149Z,40.63
2017-03-24T11:55:07.684Z,43.17
2017-03-24T11:56:08.217Z,39.69
2017-03-24T11:57:08.746Z,43.33
2017-03-24T11:58:09.431Z,40.76
2017-03-24T11:59:09.819Z,39.27
2017-03-24T12:00:10.345Z,41.82
2017-03-24T12:01:10.877Z,40.59
2017-03-24T12:02:11.408Z,41.58
2017-03-24T12:03:11.943Z,39.94
2017-03-24T12:04:12.475Z,41.33
2017-03-24T12:05:13.006Z,40.38
2017-03-24T12:06:13.550Z,40.93
2017-03-24T12:07:14.072Z,41.45
2017-03-24T12:08:14.601Z,38.90
2017-03-24T12:09:15.285Z,38.75
2017-03-24T12:10:15.679Z,41.23
2017-03-24T12:11:16.214Z,41.88
2017-03-24T12:12:16.749Z,40.68
2017-03-24T12:13:17.282Z,41.50
2017-03-24T12:14:17.826Z,40.68
2017-03-24T12:15:18.352Z,39.42
2017-03-24T12:16:18.883Z,42.67
2017-03-24T12:17:19.411Z,41.50
2017-03-24T12:18:19.953Z,40.56
2017-03-24T12:19:20.622Z,41.73
2017-03-24T12:20:21.034Z,41.18
2017-03-24T12:21:21.549Z,39.54
2017-03-24T12:22:22.094Z,41.10
2017-03-24T12:23:22.612Z,39.74
2017-03-24T12:24:23.147Z,40.88
2017-03-24T12:25:23.680Z,39.15
2017-03-24T12:26:24.211Z,40.63
2017-03-24T12:27:24.757Z,42.30
2017-03-24T12:28:25.278Z,42.90
2017-03-24T12:29:25.811Z,41.61
2017-03-24T12:30:26.356Z,40.21
2017-03-24T12:31:26.879Z,41.61
2017-03-24T12:32:27.407Z,42.65
2017-03-24T12:33:27.940Z,40.34
2017-03-24T12:34:28.621Z,40.01
2017-03-24T12:35:29.007Z,41.56
2017-03-24T12:36:29.538Z,39.47
2017-03-24T12:37:30.072Z,37.93
2017-03-24T12:38:30.602Z,38.47
2017-03-24T12:39:31.134Z,37.71
2017-03-24T12:40:31.671Z,38.60
2017-03-24T12:41:32.199Z,38.55
2017-03-24T12:42:32.878Z,37.91
2017-03-24T12:43:33.260Z,38.75
2017-03-24T12:44:33.805Z,38.87
2017-03-24T12:45:34.338Z,39.22
2017-03-24T12:46:34.866Z,39.22
2017-03-24T12:47:35.400Z,38.23
2017-03-24T12:48:35.927Z,39.91
2017-03-24T12:49:36.461Z,40.26
2017-03-24T12:50:37.002Z,40.19
2017-03-24T12:51:37.527Z,40.63
2017-03-24T12:52:38.082Z,40.54
2017-03-24T12:53:38.603Z,40.24
2017-03-24T12:54:39.143Z,40.04
2017-03-24T12:55:39.676Z,40.98
2017-03-24T12:56:40.217Z,42.10
2017-03-24T12:57:40.737Z,43.70
2017-03-24T12:58:41.270Z,42.23
2017-03-24T12:59:41.802Z,42.75
2017-03-24T13:00:42.336Z,39.24